Vance Air Force Base
KEND : now visible

Airfield :











YOU CAN JOIN US ON...

 
LOGIN :

Register | Disclaimer

   EN    FR    IT 

 









Legend :    VFR   Marginal VFR   IFR   Intensive IFR   Very Intensive IFR
Visi :
Ceiling :
>= 8 km
>= 3000ft
5 to 8 km
1000 to 3000 ft
1500m to 5 km
500 to 1000 ft
800 to 1500m
200 to 500 ft
< 800m
< 200 ft
Symbols :   Thunderstorms  Fog  Heavy snow  Heavy precipitations  Wind > 20 kt






- Airport Elevation : 1307 ft


KEND - Vance Air Force Base

CURRENT METAR :
  • 130955Z AUTO 18008KT 10SM CLR 24/19 A3001 RMK AO2 SLP147 T02380191 $

EXPIRED METARs :
  • 130855Z AUTO 19009KT 10SM CLR 24/19 A2999 RMK AO2 SLP139 T02440190 55000 $
  • 130755Z AUTO 20009KT 10SM CLR 26/19 A2999 RMK AO2 SLP139 T02550189 $
  • 130655Z AUTO 20012KT 10SM CLR 27/19 A2999 RMK AO2 SLP139 T02670190 $
  • 130555Z AUTO 18011KT 10SM CLR 27/19 A2999 RMK AO2 SLP139 T02720193 10357 20269 403780233 52012 $

TAF AMD TAF KEND
Valid from the 13 at 01:00 until the 14 at 00:00 UTC


130133Z 1301/1324 19010G15KT 9999 FEW120 QNH2994INS
BECMG 1311/1312 19012G18KT 9999 SKC QNH3002INS TX22/1301Z TN22/1312Z LAST NO AMDS AFT 1201 NEXT 1315
KZKC FIR / North America



MET'MAP, your aeronautical weather chart ! - Copyright ORBIFLY December 2007 - Disclaimer

ORBIFLY MET'MAP TEAM :

Programming & Development : Alexandra Zaïnal
Original concept : Baudouin d'Aumeries
Technical & hardware support : Manuel Goepfert
Assistance : Marc-Olivier Méhu




SOURCES & CREDITS :

   NOAA       Earth
Advisory